<?xml version="1.0" encoding="utf-8"?>
<gpx xmlns:xsi="http://www.w3.org/2001/XMLSchema-instance" xmlns:xsd="http://www.w3.org/2001/XMLSchema" version="1.1" creator="Shapelink.com" xmlns="http://www.topografix.com/GPX/1/1" xmlns:gpxtpx="http://www.garmin.com/xmlschemas/TrackPointExtension/v1">
  <metadata>
    <name>Övrigt 2.06 km, 2019-04-08</name>
    <desc></desc>
    <author><name>Marian Moron</name></author> 
    <time>2019-04-08T21:10:28Z</time>
  </metadata>
  <trk>
    <name>Övrigt 2.06 km, 2019-04-08</name>
    <trkseg>
      <trkpt lat="51.229830483204" lon="4.457888536938">
        <ele>6.2</ele>
        <time>2019-04-08T21:10:28Z</time>
      </trkpt>
      <trkpt lat="51.229873398532" lon="4.457952826111">
        <ele>5</ele>
        <time>2019-04-08T21:10:32Z</time>
      </trkpt>
      <trkpt lat="51.229985967449" lon="4.458236637245">
        <ele>4</ele>
        <time>2019-04-08T21:10:58Z</time>
      </trkpt>
      <trkpt lat="51.2300470715" lon="4.45852371732">
        <ele>2.6</ele>
        <time>2019-04-08T21:11:21Z</time>
      </trkpt>
      <trkpt lat="51.230095267425" lon="4.458833931439">
        <ele>0</ele>
        <time>2019-04-08T21:11:52Z</time>
      </trkpt>
      <trkpt lat="51.230269610945" lon="4.45874751405">
        <ele>2.8</ele>
        <time>2019-04-08T21:12:21Z</time>
      </trkpt>
      <trkpt lat="51.230715444206" lon="4.458657911539">
        <ele>7.6</ele>
        <time>2019-04-08T21:13:06Z</time>
      </trkpt>
      <trkpt lat="51.230744277942" lon="4.458641399196">
        <ele>7.2</ele>
        <time>2019-04-08T21:13:08Z</time>
      </trkpt>
      <trkpt lat="51.230982910635" lon="4.458546935183">
        <ele>0</ele>
        <time>2019-04-08T21:13:37Z</time>
      </trkpt>
      <trkpt lat="51.231048037998" lon="4.458542325138">
        <ele>0</ele>
        <time>2019-04-08T21:14:29Z</time>
      </trkpt>
      <trkpt lat="51.231242078983" lon="4.458423888891">
        <ele>0</ele>
        <time>2019-04-08T21:14:48Z</time>
      </trkpt>
      <trkpt lat="51.231258758964" lon="4.458378039898">
        <ele>0</ele>
        <time>2019-04-08T21:14:52Z</time>
      </trkpt>
      <trkpt lat="51.231330759485" lon="4.4583493738">
        <ele>0</ele>
        <time>2019-04-08T21:14:58Z</time>
      </trkpt>
      <trkpt lat="51.231448106085" lon="4.458338142054">
        <ele>0</ele>
        <time>2019-04-08T21:15:19Z</time>
      </trkpt>
      <trkpt lat="51.23155413712" lon="4.458385248332">
        <ele>0</ele>
        <time>2019-04-08T21:15:36Z</time>
      </trkpt>
      <trkpt lat="51.23162035413" lon="4.458473090644">
        <ele>0</ele>
        <time>2019-04-08T21:15:52Z</time>
      </trkpt>
      <trkpt lat="51.231644410183" lon="4.458551545228">
        <ele>0</ele>
        <time>2019-04-08T21:16:00Z</time>
      </trkpt>
      <trkpt lat="51.231697383791" lon="4.458882797916">
        <ele>1.6</ele>
        <time>2019-04-08T21:16:25Z</time>
      </trkpt>
      <trkpt lat="51.231738036006" lon="4.459189156361">
        <ele>0.2</ele>
        <time>2019-04-08T21:17:05Z</time>
      </trkpt>
      <trkpt lat="51.231798553324" lon="4.459435248945">
        <ele>0</ele>
        <time>2019-04-08T21:18:03Z</time>
      </trkpt>
      <trkpt lat="51.231822274101" lon="4.459575813408">
        <ele>0</ele>
        <time>2019-04-08T21:18:15Z</time>
      </trkpt>
      <trkpt lat="51.231892262966" lon="4.459901031128">
        <ele>0</ele>
        <time>2019-04-08T21:18:36Z</time>
      </trkpt>
      <trkpt lat="51.232007765548" lon="4.460492709449">
        <ele>0</ele>
        <time>2019-04-08T21:19:07Z</time>
      </trkpt>
      <trkpt lat="51.232052357256" lon="4.460969220464">
        <ele>0</ele>
        <time>2019-04-08T21:19:39Z</time>
      </trkpt>
      <trkpt lat="51.232153610608" lon="4.461458052872">
        <ele>0</ele>
        <time>2019-04-08T21:20:21Z</time>
      </trkpt>
      <trkpt lat="51.232236591418" lon="4.461667851829">
        <ele>5.6</ele>
        <time>2019-04-08T21:20:48Z</time>
      </trkpt>
      <trkpt lat="51.232240866187" lon="4.461876309682">
        <ele>1.2</ele>
        <time>2019-04-08T21:21:12Z</time>
      </trkpt>
      <trkpt lat="51.232294091252" lon="4.462526745122">
        <ele>0</ele>
        <time>2019-04-08T21:21:56Z</time>
      </trkpt>
      <trkpt lat="51.232283697696" lon="4.46252439819">
        <ele>0</ele>
        <time>2019-04-08T21:21:57Z</time>
      </trkpt>
      <trkpt lat="51.232252600847" lon="4.462548873338">
        <ele>0</ele>
        <time>2019-04-08T21:22:08Z</time>
      </trkpt>
      <trkpt lat="51.232229802079" lon="4.462615174167">
        <ele>1.2</ele>
        <time>2019-04-08T21:22:13Z</time>
      </trkpt>
      <trkpt lat="51.232229047708" lon="4.462740315934">
        <ele>3</ele>
        <time>2019-04-08T21:22:25Z</time>
      </trkpt>
      <trkpt lat="51.232229047708" lon="4.462779124131">
        <ele>3</ele>
        <time>2019-04-08T21:22:27Z</time>
      </trkpt>
      <trkpt lat="51.232134332238" lon="4.46310358748">
        <ele>2.4</ele>
        <time>2019-04-08T21:22:51Z</time>
      </trkpt>
      <trkpt lat="51.23210482795" lon="4.463232836378">
        <ele>2.4</ele>
        <time>2019-04-08T21:23:04Z</time>
      </trkpt>
      <trkpt lat="51.231988906273" lon="4.46360566329">
        <ele>4.2</ele>
        <time>2019-04-08T21:23:29Z</time>
      </trkpt>
      <trkpt lat="51.231922437806" lon="4.463634664664">
        <ele>2.6</ele>
        <time>2019-04-08T21:23:35Z</time>
      </trkpt>
      <trkpt lat="51.231849096181" lon="4.463613039362">
        <ele>0.4</ele>
        <time>2019-04-08T21:24:02Z</time>
      </trkpt>
      <trkpt lat="51.231436036149" lon="4.463320427233">
        <ele>1.8</ele>
        <time>2019-04-08T21:24:44Z</time>
      </trkpt>
      <trkpt lat="51.231399574884" lon="4.463249767816">
        <ele>0.8</ele>
        <time>2019-04-08T21:24:55Z</time>
      </trkpt>
      <trkpt lat="51.23121886112" lon="4.463194195819">
        <ele>0</ele>
        <time>2019-04-08T21:25:20Z</time>
      </trkpt>
      <trkpt lat="51.231008056335" lon="4.463347584589">
        <ele>0.6</ele>
        <time>2019-04-08T21:25:47Z</time>
      </trkpt>
      <trkpt lat="51.230820385594" lon="4.463387230976">
        <ele>3</ele>
        <time>2019-04-08T21:26:09Z</time>
      </trkpt>
      <trkpt lat="51.230449151243" lon="4.463491585631">
        <ele>3</ele>
        <time>2019-04-08T21:26:49Z</time>
      </trkpt>
      <trkpt lat="51.230440350248" lon="4.463564089066">
        <ele>1.6</ele>
        <time>2019-04-08T21:26:54Z</time>
      </trkpt>
      <trkpt lat="51.230375725799" lon="4.463754190558">
        <ele>0</ele>
        <time>2019-04-08T21:27:09Z</time>
      </trkpt>
      <trkpt lat="51.230349993366" lon="4.463935407236">
        <ele>0</ele>
        <time>2019-04-08T21:27:19Z</time>
      </trkpt>
      <trkpt lat="51.230035504478" lon="4.464246962459">
        <ele>0</ele>
        <time>2019-04-08T21:27:55Z</time>
      </trkpt>
      <trkpt lat="51.22966318048" lon="4.464201197285">
        <ele>12.2</ele>
        <time>2019-04-08T21:28:29Z</time>
      </trkpt>
      <trkpt lat="51.229408622177" lon="4.464268336304">
        <ele>9.4</ele>
        <time>2019-04-08T21:28:55Z</time>
      </trkpt>
      <trkpt lat="51.229205612559" lon="4.464326841966">
        <ele>7.6</ele>
        <time>2019-04-08T21:29:24Z</time>
      </trkpt>
      <trkpt lat="51.228914592991" lon="4.464423066178">
        <ele>4</ele>
        <time>2019-04-08T21:30:06Z</time>
      </trkpt>
      <trkpt lat="51.228773609433" lon="4.4643927237">
        <ele>5</ele>
        <time>2019-04-08T21:30:25Z</time>
      </trkpt>
      <trkpt lat="51.22871015845" lon="4.464374534977">
        <ele>4.4</ele>
        <time>2019-04-08T21:30:32Z</time>
      </trkpt>
      <trkpt lat="51.228585603416" lon="4.464176303042">
        <ele>0</ele>
        <time>2019-04-08T21:30:47Z</time>
      </trkpt>
      <trkpt lat="51.228472699223" lon="4.463541206479">
        <ele>0</ele>
        <time>2019-04-08T21:31:23Z</time>
      </trkpt>
      <trkpt lat="51.228416205217" lon="4.463452190701">
        <ele>0</ele>
        <time>2019-04-08T21:31:34Z</time>
      </trkpt>
      <trkpt lat="51.22802284265" lon="4.463167625196">
        <ele>8</ele>
        <time>2019-04-08T21:33:01Z</time>
      </trkpt>
      <trkpt lat="51.227975568734" lon="4.463135019605">
        <ele>9.6</ele>
        <time>2019-04-08T21:33:04Z</time>
      </trkpt>
      <trkpt lat="51.2279432146" lon="4.463118004348">
        <ele>10</ele>
        <time>2019-04-08T21:33:06Z</time>
      </trkpt>
      <trkpt lat="51.227717992947" lon="4.462832600653">
        <ele>3</ele>
        <time>2019-04-08T21:33:24Z</time>
      </trkpt>
      <trkpt lat="51.227597796501" lon="4.4625654695">
        <ele>2.2</ele>
        <time>2019-04-08T21:33:44Z</time>
      </trkpt>
      <trkpt lat="51.227573488991" lon="4.462491038228">
        <ele>3</ele>
        <time>2019-04-08T21:33:48Z</time>
      </trkpt>
      <trkpt lat="51.227535938079" lon="4.462302864573">
        <ele>0</ele>
        <time>2019-04-08T21:34:02Z</time>
      </trkpt>
      <trkpt lat="51.227468463784" lon="4.462040259646">
        <ele>0</ele>
        <time>2019-04-08T21:34:19Z</time>
      </trkpt>
      <trkpt lat="51.22742521318" lon="4.461894749862">
        <ele>0</ele>
        <time>2019-04-08T21:34:38Z</time>
      </trkpt>
      <trkpt lat="51.227410544855" lon="4.461596354222">
        <ele>0</ele>
        <time>2019-04-08T21:35:01Z</time>
      </trkpt>
      <trkpt lat="51.227389338648" lon="4.461381693763">
        <ele>0</ele>
        <time>2019-04-08T21:35:22Z</time>
      </trkpt>
      <trkpt lat="51.227419848764" lon="4.460967124989">
        <ele>0</ele>
        <time>2019-04-08T21:35:43Z</time>
      </trkpt>
      <trkpt lat="51.227351201003" lon="4.460596812647">
        <ele>9.6</ele>
        <time>2019-04-08T21:36:07Z</time>
      </trkpt>
      <trkpt lat="51.227326642036" lon="4.460312330961">
        <ele>5.4</ele>
        <time>2019-04-08T21:36:23Z</time>
      </trkpt>
      <trkpt lat="51.227146431186" lon="4.459653262164">
        <ele>0</ele>
        <time>2019-04-08T21:37:02Z</time>
      </trkpt>
      <trkpt lat="51.227042914721" lon="4.459289487704">
        <ele>0</ele>
        <time>2019-04-08T21:37:25Z</time>
      </trkpt>
      <trkpt lat="51.227088344619" lon="4.459120173324">
        <ele>0</ele>
        <time>2019-04-08T21:37:53Z</time>
      </trkpt>
      <trkpt lat="51.227522191763" lon="4.458901321915">
        <ele>14.2</ele>
        <time>2019-04-08T21:38:46Z</time>
      </trkpt>
      <trkpt lat="51.227939945659" lon="4.458641399196">
        <ele>9</ele>
        <time>2019-04-08T21:39:30Z</time>
      </trkpt>
      <trkpt lat="51.22802619541" lon="4.458554227436">
        <ele>8</ele>
        <time>2019-04-08T21:40:09Z</time>
      </trkpt>
      <trkpt lat="51.228464736418" lon="4.458343087375">
        <ele>0</ele>
        <time>2019-04-08T21:40:39Z</time>
      </trkpt>
      <trkpt lat="51.22848300896" lon="4.458243594222">
        <ele>0</ele>
        <time>2019-04-08T21:40:44Z</time>
      </trkpt>
      <trkpt lat="51.228500527131" lon="4.457836988253">
        <ele>0</ele>
        <time>2019-04-08T21:41:07Z</time>
      </trkpt>
      <trkpt lat="51.228518967311" lon="4.457686281691">
        <ele>0</ele>
        <time>2019-04-08T21:41:19Z</time>
      </trkpt>
      <trkpt lat="51.228435651225" lon="4.457398782521">
        <ele>0</ele>
        <time>2019-04-08T21:41:36Z</time>
      </trkpt>
      <trkpt lat="51.228317298797" lon="4.457394256295">
        <ele>0</ele>
        <time>2019-04-08T21:41:45Z</time>
      </trkpt>
      <trkpt lat="51.228160221991" lon="4.457378246866">
        <ele>0</ele>
        <time>2019-04-08T21:42:00Z</time>
      </trkpt>
      <trkpt lat="51.228180506189" lon="4.45732510562">
        <ele>2</ele>
        <time>2019-04-08T21:42:04Z</time>
      </trkpt>
      <trkpt lat="51.228270360157" lon="4.457321585222">
        <ele>7.2</ele>
        <time>2019-04-08T21:42:21Z</time>
      </trkpt>
      <trkpt lat="51.228380665961" lon="4.457267857243">
        <ele>9.8</ele>
        <time>2019-04-08T21:42:33Z</time>
      </trkpt>
      <trkpt lat="51.228529025591" lon="4.457373553002">
        <ele>2.4</ele>
        <time>2019-04-08T21:42:50Z</time>
      </trkpt>
      <trkpt lat="51.228552159635" lon="4.457543370296">
        <ele>0</ele>
        <time>2019-04-08T21:43:03Z</time>
      </trkpt>
      <trkpt lat="51.228600020284" lon="4.45797805563">
        <ele>0</ele>
        <time>2019-04-08T21:43:26Z</time>
      </trkpt>
      <trkpt lat="51.22871099664" lon="4.458127421088">
        <ele>0</ele>
        <time>2019-04-08T21:43:49Z</time>
      </trkpt>
      <trkpt lat="51.229177784651" lon="4.458101772474">
        <ele>7.2</ele>
        <time>2019-04-08T21:44:30Z</time>
      </trkpt>
      <trkpt lat="51.229615738926" lon="4.457928770058">
        <ele>11.6</ele>
        <time>2019-04-08T21:45:05Z</time>
      </trkpt>
      <trkpt lat="51.229643985929" lon="4.457940923813">
        <ele>12.4</ele>
        <time>2019-04-08T21:45:22Z</time>
      </trkpt>
    </trkseg>
  </trk>
</gpx>